createdAt,value
2018-10-21T00:02:21.416Z,11.20
2018-10-21T00:04:51.525Z,11.03
2018-10-21T00:07:21.915Z,11.27
2018-10-21T00:09:51.972Z,11.70
2018-10-21T00:12:22.009Z,10.57
2018-10-21T00:14:52.077Z,11.23
2018-10-21T00:17:22.071Z,11.30
2018-10-21T00:19:52.174Z,11.57
2018-10-21T00:22:28.435Z,11.67
2018-10-21T00:24:58.694Z,12.07
2018-10-21T00:27:28.672Z,10.43
2018-10-21T00:29:58.715Z,11.27
2018-10-21T00:32:34.129Z,10.97
2018-10-21T00:35:04.203Z,12.20
2018-10-21T00:37:34.249Z,11.17
2018-10-21T00:40:04.363Z,11.30
2018-10-21T00:42:34.451Z,11.23
2018-10-21T00:45:04.590Z,10.90
2018-10-21T00:47:34.567Z,11.07
2018-10-21T00:50:05.679Z,10.60
2018-10-21T00:52:35.713Z,10.93
2018-10-21T00:55:07.082Z,10.07
2018-10-21T00:57:37.121Z,10.90
2018-10-21T01:00:09.016Z,10.83
2018-10-21T01:02:39.105Z,10.43
2018-10-21T01:05:10.459Z,10.07
2018-10-21T01:07:40.490Z,10.53
2018-10-21T01:10:11.876Z,10.17
2018-10-21T01:12:42.234Z,10.47
2018-10-21T01:15:13.182Z,9.93
2018-10-21T01:17:43.128Z,10.77
2018-10-21T01:20:13.439Z,10.83
2018-10-21T01:22:43.427Z,10.43
2018-10-21T01:25:13.480Z,9.60
2018-10-21T01:27:43.543Z,10.33
2018-10-21T01:30:13.667Z,9.77
2018-10-21T01:32:43.834Z,11.03
2018-10-21T01:35:13.834Z,10.40
2018-10-21T01:37:43.866Z,9.93
2018-10-21T01:40:59.476Z,11.40
2018-10-21T01:43:31.534Z,10.97
2018-10-21T01:46:02.444Z,10.37
2018-10-21T01:48:33.067Z,10.63
2018-10-21T01:51:03.211Z,11.20
2018-10-21T01:53:33.240Z,9.90
2018-10-21T01:56:03.338Z,9.67
2018-10-21T01:58:33.444Z,10.20
2018-10-21T02:01:03.520Z,10.37
2018-10-21T02:03:33.562Z,9.73
2018-10-21T02:06:03.627Z,9.90
2018-10-21T02:08:33.750Z,9.63
2018-10-21T02:11:03.796Z,10.33
2018-10-21T02:13:33.984Z,11.63
2018-10-21T02:16:04.060Z,10.43
2018-10-21T02:18:34.149Z,10.80
2018-10-21T02:21:04.297Z,10.33
2018-10-21T02:23:34.306Z,10.33
2018-10-21T02:26:04.340Z,9.80
2018-10-21T02:28:34.326Z,10.23
2018-10-21T02:31:04.457Z,10.13
2018-10-21T02:33:34.540Z,10.23
2018-10-21T02:36:04.496Z,10.30
2018-10-21T02:38:34.508Z,10.67
2018-10-21T02:41:26.909Z,10.60
2018-10-21T02:43:56.974Z,9.70
2018-10-21T02:46:27.330Z,9.73
2018-10-21T02:48:58.250Z,8.80
2018-10-21T02:51:28.330Z,10.17
2018-10-21T02:53:58.348Z,10.53
2018-10-21T02:56:28.506Z,11.03
2018-10-21T02:58:58.529Z,10.50
2018-10-21T03:01:28.504Z,9.83
2018-10-21T03:03:58.497Z,9.90
2018-10-21T03:06:28.558Z,10.47
2018-10-21T03:08:58.631Z,10.23
2018-10-21T03:11:28.682Z,10.27
2018-10-21T03:13:58.684Z,10.17
2018-10-21T03:16:28.779Z,10.57
2018-10-21T03:18:58.842Z,10.50
2018-10-21T03:21:28.930Z,12.03
2018-10-21T03:23:58.928Z,9.90
2018-10-21T03:26:29.038Z,10.83
2018-10-21T03:28:59.066Z,10.20
2018-10-21T03:31:29.136Z,11.40
2018-10-21T03:33:59.296Z,11.03
2018-10-21T03:36:29.312Z,11.17
2018-10-21T03:38:59.463Z,11.73
2018-10-21T03:41:29.582Z,11.03
2018-10-21T03:43:59.608Z,11.37
2018-10-21T03:46:29.664Z,10.37
2018-10-21T03:48:59.779Z,10.67
2018-10-21T03:51:29.919Z,11.83
2018-10-21T03:54:00.053Z,12.10
2018-10-21T03:56:30.090Z,10.37
2018-10-21T03:59:00.154Z,11.33
2018-10-21T04:01:30.181Z,10.57
2018-10-21T04:04:00.318Z,10.57
2018-10-21T04:06:30.372Z,10.93
2018-10-21T04:09:00.380Z,11.20
2018-10-21T04:11:30.457Z,10.90
2018-10-21T04:14:03.104Z,11.03
2018-10-21T04:16:33.111Z,10.60
2018-10-21T04:19:03.211Z,11.17
2018-10-21T04:21:34.447Z,11.10
2018-10-21T04:24:04.499Z,10.43
2018-10-21T04:26:34.689Z,11.23
2018-10-21T04:29:04.703Z,11.00
2018-10-21T04:31:34.785Z,10.50
2018-10-21T04:34:04.948Z,10.60
2018-10-21T04:36:35.609Z,10.23
2018-10-21T04:39:33.519Z,10.57
2018-10-21T04:42:03.505Z,10.97
2018-10-21T04:44:33.481Z,11.77
2018-10-21T04:47:03.668Z,11.20
2018-10-21T04:49:33.550Z,10.70
2018-10-21T04:52:03.673Z,10.80
2018-10-21T04:54:36.479Z,11.50
2018-10-21T04:57:08.299Z,11.93
2018-10-21T04:59:41.767Z,12.37
2018-10-21T05:02:11.935Z,12.30
2018-10-21T05:04:42.064Z,12.77
2018-10-21T05:07:12.161Z,11.70
2018-10-21T05:09:42.282Z,11.80
2018-10-21T05:12:12.421Z,11.07
2018-10-21T05:14:43.379Z,11.50
2018-10-21T05:17:13.628Z,11.50
2018-10-21T05:19:44.896Z,11.40
2018-10-21T05:22:15.091Z,10.20
2018-10-21T05:24:45.221Z,10.87
2018-10-21T05:27:15.596Z,12.07
2018-10-21T05:29:52.401Z,12.43
2018-10-21T05:32:22.513Z,12.70
2018-10-21T05:34:52.602Z,12.93
2018-10-21T05:37:22.729Z,13.20
2018-10-21T05:39:52.983Z,11.77
2018-10-21T05:42:23.059Z,12.10
2018-10-21T05:44:53.165Z,11.47
2018-10-21T05:47:23.333Z,11.40
2018-10-21T05:49:53.457Z,11.27
2018-10-21T05:52:27.241Z,10.37
2018-10-21T05:54:57.590Z,10.47
2018-10-21T05:57:28.507Z,12.57
2018-10-21T06:00:02.195Z,12.57
2018-10-21T06:02:33.591Z,12.20
2018-10-21T06:05:43.699Z,10.77
2018-10-21T06:08:14.176Z,10.97
2018-10-21T06:10:48.053Z,11.03
2018-10-21T06:13:23.936Z,12.57
2018-10-21T06:15:58.756Z,10.73
2018-10-21T06:18:29.672Z,10.90
2018-10-21T06:21:03.283Z,11.10
2018-10-21T06:23:34.299Z,10.17
2018-10-21T06:26:05.621Z,11.37
2018-10-21T06:28:36.915Z,11.23
2018-10-21T06:31:06.976Z,11.90
2018-10-21T06:33:37.072Z,11.70
2018-10-21T06:36:07.065Z,11.17
2018-10-21T06:38:37.191Z,10.93
2018-10-21T06:41:07.329Z,10.37
2018-10-21T06:43:37.355Z,11.03
2018-10-21T06:46:08.103Z,11.40
2018-10-21T06:48:39.115Z,11.47
2018-10-21T06:51:09.203Z,11.80
2018-10-21T06:53:42.714Z,11.70
2018-10-21T06:56:12.796Z,11.33
2018-10-21T06:58:42.815Z,11.43
2018-10-21T07:01:13.227Z,11.63
2018-10-21T07:03:43.339Z,11.30
2018-10-21T07:06:21.377Z,10.70
2018-10-21T07:08:52.594Z,10.97
2018-10-21T07:11:22.636Z,10.07
2018-10-21T07:13:52.654Z,9.60
2018-10-21T07:16:22.822Z,10.27
2018-10-21T07:18:53.217Z,10.07
2018-10-21T07:21:23.232Z,9.93
2018-10-21T07:23:53.582Z,9.37
2018-10-21T07:26:23.574Z,9.63
2018-10-21T07:28:53.661Z,10.40
2018-10-21T07:31:24.401Z,9.73
2018-10-21T07:33:57.019Z,10.37
2018-10-21T07:36:27.801Z,10.57
2018-10-21T07:38:58.147Z,10.43
2018-10-21T07:41:28.174Z,9.93
2018-10-21T07:43:58.746Z,9.93
2018-10-21T07:46:28.834Z,10.03
2018-10-21T07:48:58.960Z,9.90
2018-10-21T07:51:29.040Z,10.03
2018-10-21T07:53:59.633Z,9.63
2018-10-21T07:56:30.449Z,11.00
2018-10-21T07:59:00.666Z,10.03
2018-10-21T08:01:30.845Z,10.27
2018-10-21T08:04:02.106Z,10.70
2018-10-21T08:06:43.226Z,9.60
2018-10-21T08:09:14.010Z,9.87
2018-10-21T08:11:44.044Z,10.27
2018-10-21T08:14:14.492Z,9.60
2018-10-21T08:16:44.529Z,10.17
2018-10-21T08:19:14.698Z,9.87
2018-10-21T08:21:44.702Z,9.90
2018-10-21T08:24:14.726Z,10.33
2018-10-21T08:26:44.735Z,10.33
2018-10-21T08:29:14.864Z,9.83
2018-10-21T08:31:44.853Z,9.80
2018-10-21T08:41:43.384Z,10.17
2018-10-21T08:44:13.665Z,9.73
2018-10-21T08:46:44.971Z,11.40
2018-10-21T08:49:16.448Z,10.70
2018-10-21T08:51:46.798Z,10.33
2018-10-21T08:54:17.156Z,10.63
2018-10-21T08:56:47.621Z,10.97
2018-10-21T08:59:17.919Z,10.63
2018-10-21T09:01:48.298Z,10.73
2018-10-21T09:04:18.776Z,10.93
2018-10-21T09:06:48.987Z,12.03
2018-10-21T09:09:19.367Z,11.30
2018-10-21T09:11:49.749Z,12.73
2018-10-21T09:14:20.045Z,11.50
2018-10-21T09:16:50.400Z,11.53
2018-10-21T09:19:20.703Z,15.43
2018-10-21T09:21:51.013Z,12.87
2018-10-21T09:24:21.362Z,13.60
2018-10-21T09:26:51.987Z,13.63
2018-10-21T09:29:22.295Z,13.43
2018-10-21T09:31:52.612Z,13.17
2018-10-21T09:34:22.933Z,12.77
2018-10-21T09:36:53.333Z,12.60
2018-10-21T09:39:23.679Z,14.07
2018-10-21T09:41:54.028Z,13.27
2018-10-21T09:44:24.511Z,13.27
2018-10-21T09:46:54.912Z,15.37
2018-10-21T09:49:25.316Z,13.30
2018-10-21T09:51:55.806Z,14.27
2018-10-21T09:54:26.103Z,11.37
2018-10-21T09:56:56.473Z,11.73
2018-10-21T09:59:26.815Z,12.33
2018-10-21T10:02:02.453Z,12.10
2018-10-21T10:04:32.766Z,13.27
2018-10-21T10:07:03.390Z,11.93
2018-10-21T10:09:33.796Z,13.33
2018-10-21T10:12:04.226Z,14.60
2018-10-21T10:14:34.647Z,12.23
2018-10-21T10:17:05.487Z,12.40
2018-10-21T10:19:35.866Z,12.73
2018-10-21T10:22:06.323Z,11.93
2018-10-21T10:24:36.851Z,21.57
2018-10-21T10:27:07.188Z,12.47
2018-10-21T10:29:37.626Z,12.50
2018-10-21T10:32:14.374Z,10.87
2018-10-21T10:34:44.644Z,13.50
2018-10-21T10:37:15.091Z,12.23
2018-10-21T10:39:45.687Z,11.00
2018-10-21T10:42:16.429Z,15.77
2018-10-21T10:44:46.828Z,12.00
2018-10-21T10:47:17.714Z,12.03
2018-10-21T10:49:48.103Z,10.53
2018-10-21T10:52:18.718Z,10.10
2018-10-21T10:54:49.200Z,9.90
2018-10-21T10:57:19.846Z,14.33
2018-10-21T10:59:50.266Z,10.57
2018-10-21T11:02:20.557Z,9.63
2018-10-21T11:04:50.882Z,9.03
2018-10-21T11:07:21.311Z,8.40
2018-10-21T11:09:51.758Z,7.70
2018-10-21T11:12:23.760Z,9.13
2018-10-21T11:14:54.197Z,8.67
2018-10-21T11:17:24.534Z,8.00
2018-10-21T11:19:54.842Z,7.80
2018-10-21T11:22:25.261Z,7.83
2018-10-21T11:24:55.608Z,7.23
2018-10-21T11:27:26.119Z,7.50
2018-10-21T11:29:56.455Z,6.23
2018-10-21T11:32:26.706Z,6.33
2018-10-21T11:34:57.056Z,6.47
2018-10-21T11:37:27.437Z,6.43
2018-10-21T11:39:57.624Z,5.70
2018-10-21T11:42:27.924Z,6.90
2018-10-21T11:44:58.307Z,6.00
2018-10-21T11:47:28.874Z,6.20
2018-10-21T11:49:59.757Z,6.78
2018-10-21T11:52:30.363Z,5.40
2018-10-21T11:55:00.789Z,6.55
2018-10-21T11:57:31.277Z,5.03
2018-10-21T12:00:01.791Z,5.10
2018-10-21T12:02:35.116Z,6.67
2018-10-21T12:05:05.559Z,7.50
2018-10-21T12:07:35.947Z,4.33
2018-10-21T12:10:09.654Z,4.53
2018-10-21T12:12:40.213Z,4.80
2018-10-21T12:15:10.601Z,4.55
2018-10-21T12:17:40.961Z,4.40
2018-10-21T12:20:11.342Z,5.08
2018-10-21T12:22:41.730Z,5.22
2018-10-21T12:25:12.210Z,5.08
2018-10-21T12:27:42.613Z,4.75
2018-10-21T12:30:13.129Z,5.20
2018-10-21T12:32:43.607Z,5.03
2018-10-21T12:35:14.110Z,4.90
2018-10-21T12:37:44.516Z,5.05
2018-10-21T12:40:14.942Z,6.78
2018-10-21T12:42:45.335Z,7.17
2018-10-21T12:45:15.702Z,5.97
2018-10-21T12:47:46.213Z,9.58
2018-10-21T12:50:16.573Z,5.28
2018-10-21T12:52:47.051Z,6.83
2018-10-21T12:55:17.532Z,5.60
2018-10-21T12:57:47.857Z,5.25
2018-10-21T13:00:18.305Z,5.42
2018-10-21T13:02:48.655Z,5.37
2018-10-21T13:05:19.001Z,5.00
2018-10-21T13:07:49.443Z,4.40
2018-10-21T13:10:19.833Z,4.97
2018-10-21T13:12:50.298Z,4.80
2018-10-21T13:15:20.639Z,4.50
2018-10-21T13:17:51.023Z,4.60
2018-10-21T13:20:21.589Z,4.87
2018-10-21T13:22:52.011Z,7.95
2018-10-21T13:25:22.491Z,4.37
2018-10-21T13:27:52.995Z,4.72
2018-10-21T13:30:23.489Z,3.98
2018-10-21T13:32:53.881Z,5.00
2018-10-21T13:35:24.309Z,4.40
2018-10-21T13:37:54.775Z,5.55
2018-10-21T13:40:25.351Z,4.22
2018-10-21T13:42:55.811Z,3.80
2018-10-21T13:45:26.247Z,3.92
2018-10-21T13:47:59.685Z,4.42
2018-10-21T13:50:30.159Z,3.27
2018-10-21T13:53:00.912Z,4.60
2018-10-21T13:55:31.250Z,4.15
2018-10-21T13:58:01.779Z,4.40
2018-10-21T14:00:32.103Z,4.60
2018-10-21T14:03:02.533Z,3.90
2018-10-21T14:05:33.163Z,5.23
2018-10-21T14:08:03.649Z,4.60
2018-10-21T14:10:34.013Z,4.20
2018-10-21T14:13:04.373Z,4.43
2018-10-21T14:15:34.731Z,4.10
2018-10-21T14:18:05.113Z,4.53
2018-10-21T14:20:35.519Z,4.23
2018-10-21T14:23:05.942Z,4.30
2018-10-21T14:25:36.335Z,4.73
2018-10-21T14:28:06.613Z,3.63
2018-10-21T14:30:36.933Z,4.20
2018-10-21T14:33:07.231Z,3.93
2018-10-21T14:35:37.502Z,4.30
2018-10-21T14:38:07.944Z,5.30
2018-10-21T14:40:38.421Z,4.50
2018-10-21T14:43:09.357Z,5.07
2018-10-21T14:45:39.838Z,6.80
2018-10-21T14:48:10.681Z,4.20
2018-10-21T14:50:41.289Z,6.77
2018-10-21T14:56:20.121Z,4.20
2018-10-21T14:58:56.365Z,4.05
2018-10-21T15:01:27.289Z,4.12
2018-10-21T15:03:57.738Z,4.22
2018-10-21T15:06:34.324Z,4.70
2018-10-21T15:09:11.941Z,4.23
2018-10-21T15:11:48.132Z,4.57
2018-10-21T15:14:33.660Z,5.97
2018-10-21T15:23:39.476Z,3.90
2018-10-21T15:26:12.327Z,4.50
2018-10-21T15:28:43.133Z,3.90
2018-10-21T15:31:13.896Z,3.90
2018-10-21T15:33:44.697Z,3.97
2018-10-21T15:36:20.592Z,3.50
2018-10-21T15:38:56.872Z,12.60
2018-10-21T15:41:27.217Z,9.40
2018-10-21T15:43:57.494Z,4.40
2018-10-21T15:46:27.868Z,5.77
2018-10-21T15:48:58.401Z,9.77
2018-10-21T15:51:28.648Z,8.07
2018-10-21T15:53:59.048Z,6.83
2018-10-21T15:56:29.446Z,6.00
2018-10-21T15:58:59.710Z,7.63
2018-10-21T16:01:30.146Z,4.60
2018-10-21T16:04:00.558Z,3.87
2018-10-21T16:06:30.804Z,3.80
2018-10-21T16:09:01.418Z,3.83
2018-10-21T16:11:31.679Z,4.00
2018-10-21T16:14:02.076Z,3.47
2018-10-21T16:16:32.261Z,3.40
2018-10-21T16:19:02.820Z,4.00
2018-10-21T16:21:33.191Z,4.00
2018-10-21T16:24:03.724Z,4.07
2018-10-21T16:26:34.182Z,5.13
2018-10-21T16:29:04.528Z,3.97
2018-10-21T16:31:34.868Z,4.73
2018-10-21T16:34:05.411Z,4.67
2018-10-21T16:36:36.010Z,4.93
2018-10-21T16:39:08.606Z,5.53
2018-10-21T16:41:38.975Z,6.17
2018-10-21T16:44:09.232Z,8.30
2018-10-21T16:46:39.572Z,6.63
2018-10-21T16:49:09.944Z,6.67
2018-10-21T16:51:40.564Z,9.10
2018-10-21T16:54:11.013Z,7.30
2018-10-21T16:56:41.328Z,6.80
2018-10-21T16:59:11.764Z,8.17
2018-10-21T17:01:42.291Z,7.13
2018-10-21T17:04:12.509Z,9.53
2018-10-21T17:06:42.928Z,10.40
2018-10-21T17:09:14.448Z,10.63
2018-10-21T17:11:45.527Z,10.40
2018-10-21T17:14:15.909Z,10.70
2018-10-21T17:16:46.469Z,10.83
2018-10-21T17:19:19.801Z,10.30
2018-10-21T17:21:50.238Z,9.30
2018-10-21T17:24:20.723Z,8.63
2018-10-21T17:26:51.053Z,10.10
2018-10-21T17:29:21.591Z,9.77
2018-10-21T17:31:51.929Z,7.83
2018-10-21T17:34:22.588Z,6.70
2018-10-21T17:36:52.843Z,6.90
2018-10-21T17:39:23.838Z,7.30
2018-10-21T17:41:54.253Z,9.80
2018-10-21T17:44:24.920Z,8.90
2018-10-21T17:46:55.261Z,9.57
2018-10-21T17:49:25.913Z,8.87
2018-10-21T17:51:56.325Z,9.47
2018-10-21T17:54:26.916Z,7.40
2018-10-21T17:56:59.360Z,8.50
2018-10-21T17:59:30.084Z,9.50
2018-10-21T18:02:00.527Z,11.40
2018-10-21T18:04:30.892Z,7.97
2018-10-21T18:07:01.378Z,9.87
2018-10-21T18:09:31.620Z,8.40
2018-10-21T18:12:02.007Z,9.83
2018-10-21T18:14:32.488Z,9.33
2018-10-21T18:17:03.638Z,8.50
2018-10-21T18:19:33.975Z,7.73
2018-10-21T18:22:04.513Z,8.70
2018-10-21T18:24:34.950Z,9.03
2018-10-21T18:27:05.420Z,10.53
2018-10-21T18:29:35.771Z,10.10
2018-10-21T18:32:06.200Z,9.43
2018-10-21T18:34:36.544Z,9.07
2018-10-21T18:37:07.629Z,10.10
2018-10-21T18:39:38.168Z,9.90
2018-10-21T18:42:08.592Z,9.73
2018-10-21T18:44:39.115Z,10.13
2018-10-21T18:47:09.464Z,10.87
2018-10-21T18:49:40.004Z,9.03
2018-10-21T18:52:10.321Z,8.67
2018-10-21T18:54:40.776Z,8.80
2018-10-21T18:57:11.898Z,9.50
2018-10-21T18:59:44.615Z,8.40
2018-10-21T19:02:15.128Z,9.57
2018-10-21T19:04:45.360Z,9.23
2018-10-21T19:07:16.124Z,9.37
2018-10-21T19:09:48.144Z,8.70
2018-10-21T19:12:18.510Z,8.70
2018-10-21T19:14:49.206Z,10.80
2018-10-21T19:17:19.524Z,10.63
2018-10-21T19:19:50.317Z,10.13
2018-10-21T19:22:20.554Z,10.23
2018-10-21T19:24:50.910Z,11.17
2018-10-21T19:27:22.046Z,12.03
2018-10-21T19:29:53.243Z,12.13
2018-10-21T19:32:23.518Z,11.63
2018-10-21T19:34:53.759Z,10.93
2018-10-21T19:37:23.999Z,12.70
2018-10-21T19:39:54.356Z,13.60
2018-10-21T19:42:24.569Z,14.33
2018-10-21T19:44:54.906Z,12.77
2018-10-21T19:47:25.164Z,12.57
2018-10-21T19:49:55.619Z,12.33
2018-10-21T19:52:25.920Z,12.40
2018-10-21T19:54:56.253Z,11.63
2018-10-21T19:57:26.785Z,10.93
2018-10-21T19:59:57.419Z,11.03
2018-10-21T20:02:27.765Z,10.13
2018-10-21T20:04:57.928Z,10.73
2018-10-21T20:07:28.188Z,10.80
2018-10-21T20:09:58.814Z,9.90
2018-10-21T20:12:29.086Z,10.07
2018-10-21T20:14:59.337Z,10.13
2018-10-21T20:17:29.644Z,9.80
2018-10-21T20:20:00.105Z,9.23
2018-10-21T20:22:30.473Z,9.53
2018-10-21T20:25:00.888Z,11.60
2018-10-21T20:27:31.184Z,10.47
2018-10-21T20:30:01.628Z,10.57
2018-10-21T20:32:31.833Z,13.20
2018-10-21T20:35:02.180Z,11.40
2018-10-21T20:37:32.483Z,9.80
2018-10-21T20:40:02.983Z,9.53
2018-10-21T20:42:33.320Z,10.17
2018-10-21T20:45:03.696Z,9.77
2018-10-21T20:47:33.959Z,10.43
2018-10-21T20:50:04.786Z,11.20
2018-10-21T20:52:35.096Z,10.70
2018-10-21T20:55:05.407Z,9.87
2018-10-21T20:57:35.775Z,10.07
2018-10-21T21:00:06.250Z,10.40
2018-10-21T21:02:36.532Z,10.20
2018-10-21T21:05:08.360Z,10.30
2018-10-21T21:07:38.716Z,9.80
2018-10-21T21:10:11.546Z,9.60
2018-10-21T21:12:41.943Z,10.20
2018-10-21T21:15:12.668Z,11.70
2018-10-21T21:17:43.103Z,10.80
2018-10-21T21:20:13.734Z,11.00
2018-10-21T21:22:44.187Z,12.40
2018-10-21T21:25:14.479Z,12.70
2018-10-21T21:27:44.765Z,12.13
2018-10-21T21:30:14.999Z,11.23
2018-10-21T21:32:45.443Z,11.13
2018-10-21T21:35:15.824Z,11.33
2018-10-21T21:37:46.209Z,12.20
2018-10-21T21:40:16.666Z,11.07
2018-10-21T21:42:46.995Z,10.37
2018-10-21T21:45:17.302Z,11.30
2018-10-21T21:47:47.601Z,10.93
2018-10-21T21:50:18.029Z,11.80
2018-10-21T21:52:48.301Z,11.10
2018-10-21T21:55:18.559Z,11.97
2018-10-21T21:57:49.090Z,10.77
2018-10-21T22:00:19.760Z,11.77
2018-10-21T22:02:50.348Z,13.23
2018-10-21T22:05:20.974Z,12.90
2018-10-21T22:07:51.445Z,13.27
2018-10-21T22:10:21.685Z,13.00
2018-10-21T22:12:51.911Z,12.93
2018-10-21T22:15:22.277Z,12.50
2018-10-21T22:17:52.804Z,12.67
2018-10-21T22:20:23.165Z,12.83
2018-10-21T22:22:53.565Z,13.27
2018-10-21T22:25:24.235Z,13.03
2018-10-21T22:27:54.727Z,11.10
2018-10-21T22:30:24.968Z,11.57
2018-10-21T22:32:55.258Z,10.93
2018-10-21T22:35:25.597Z,12.60
2018-10-21T22:37:55.887Z,12.37
2018-10-21T22:40:26.254Z,12.30
2018-10-21T22:42:56.599Z,11.30
2018-10-21T22:45:27.764Z,12.07
2018-10-21T22:47:58.096Z,11.97
2018-10-21T22:50:28.572Z,11.40
2018-10-21T22:52:58.977Z,12.37
2018-10-21T22:55:29.436Z,12.93
2018-10-21T22:57:59.758Z,12.17
2018-10-21T23:00:30.053Z,12.00
2018-10-21T23:03:00.351Z,12.20
2018-10-21T23:05:30.734Z,12.27
2018-10-21T23:08:01.366Z,11.53
2018-10-21T23:10:31.606Z,11.57
2018-10-21T23:13:02.116Z,13.10
2018-10-21T23:15:34.855Z,12.43
2018-10-21T23:18:05.404Z,12.03
2018-10-21T23:20:35.873Z,12.77
2018-10-21T23:23:06.453Z,12.37
2018-10-21T23:25:36.777Z,13.60
2018-10-21T23:28:07.093Z,13.33
2018-10-21T23:30:37.338Z,12.90
2018-10-21T23:33:07.634Z,13.40
2018-10-21T23:35:38.000Z,12.93
2018-10-21T23:38:08.284Z,12.37
2018-10-21T23:40:38.778Z,12.67
2018-10-21T23:43:09.064Z,12.47
2018-10-21T23:45:39.390Z,12.90
2018-10-21T23:48:09.655Z,11.47
2018-10-21T23:50:39.935Z,11.90
2018-10-21T23:53:10.296Z,12.43
2018-10-21T23:55:40.652Z,11.50
2018-10-21T23:58:11.136Z,12.33
